sensor_id;sensor_type;location;lat;lon;timestamp;P1;durP1;ratioP1;P2;durP2;ratioP2
69005;SDS011;56061;51.748;19.620;2024-03-23T00:55:37;28.40;;;13.80;;
69005;SDS011;56061;51.748;19.620;2024-03-23T00:58:03;30.60;;;12.90;;
69005;SDS011;56061;51.748;19.620;2024-03-23T01:00:30;28.20;;;12.50;;
69005;SDS011;56061;51.748;19.620;2024-03-23T01:02:56;29.00;;;13.20;;
69005;SDS011;56061;51.748;19.620;2024-03-23T01:05:23;30.70;;;13.30;;
69005;SDS011;56061;51.748;19.620;2024-03-23T01:07:49;24.50;;;11.80;;
69005;SDS011;56061;51.748;19.620;2024-03-23T01:10:15;31.00;;;13.90;;
69005;SDS011;56061;51.748;19.620;2024-03-23T01:12:42;29.80;;;14.30;;
69005;SDS011;56061;51.748;19.620;2024-03-23T01:15:08;30.10;;;13.40;;
69005;SDS011;56061;51.748;19.620;2024-03-23T01:17:35;27.10;;;11.90;;
69005;SDS011;56061;51.748;19.620;2024-03-23T01:20:01;26.80;;;12.80;;
69005;SDS011;56061;51.748;19.620;2024-03-23T01:22:28;32.00;;;14.50;;
69005;SDS011;56061;51.748;19.620;2024-03-23T01:24:54;32.80;;;14.00;;
69005;SDS011;56061;51.748;19.620;2024-03-23T01:27:21;27.10;;;12.80;;
69005;SDS011;56061;51.748;19.620;2024-03-23T01:29:47;28.80;;;13.80;;
69005;SDS011;56061;51.748;19.620;2024-03-23T01:32:14;31.90;;;13.40;;
69005;SDS011;56061;51.748;19.620;2024-03-23T01:34:40;29.20;;;13.90;;
69005;SDS011;56061;51.748;19.620;2024-03-23T01:37:06;32.90;;;13.60;;
69005;SDS011;56061;51.748;19.620;2024-03-23T01:39:33;29.30;;;13.30;;
69005;SDS011;56061;51.748;19.620;2024-03-23T01:41:59;33.30;;;14.00;;
69005;SDS011;56061;51.748;19.620;2024-03-23T01:44:25;28.90;;;13.80;;
69005;SDS011;56061;51.748;19.620;2024-03-23T01:46:52;30.70;;;13.90;;
69005;SDS011;56061;51.748;19.620;2024-03-23T01:49:18;30.30;;;14.70;;
69005;SDS011;56061;51.748;19.620;2024-03-23T01:51:45;34.70;;;14.80;;
69005;SDS011;56061;51.748;19.620;2024-03-23T01:54:11;33.90;;;14.30;;
69005;SDS011;56061;51.748;19.620;2024-03-23T01:56:38;31.50;;;13.50;;
69005;SDS011;56061;51.748;19.620;2024-03-23T01:59:05;27.70;;;12.70;;
69005;SDS011;56061;51.748;19.620;2024-03-23T02:01:32;29.20;;;13.40;;
69005;SDS011;56061;51.748;19.620;2024-03-23T02:04:02;29.70;;;13.70;;
69005;SDS011;56061;51.748;19.620;2024-03-23T02:06:29;30.00;;;13.00;;
69005;SDS011;56061;51.748;19.620;2024-03-23T02:08:55;30.40;;;13.70;;
69005;SDS011;56061;51.748;19.620;2024-03-23T02:11:22;28.90;;;12.80;;
69005;SDS011;56061;51.748;19.620;2024-03-23T02:13:49;28.80;;;12.70;;
69005;SDS011;56061;51.748;19.620;2024-03-23T02:16:15;30.50;;;13.70;;
69005;SDS011;56061;51.748;19.620;2024-03-23T02:18:42;26.60;;;12.60;;
69005;SDS011;56061;51.748;19.620;2024-03-23T02:21:08;29.50;;;13.20;;
69005;SDS011;56061;51.748;19.620;2024-03-23T02:23:34;27.50;;;12.30;;
69005;SDS011;56061;51.748;19.620;2024-03-23T02:26:01;27.40;;;12.70;;
69005;SDS011;56061;51.748;19.620;2024-03-23T02:28:27;28.40;;;12.80;;
69005;SDS011;56061;51.748;19.620;2024-03-23T02:30:53;31.30;;;13.70;;
69005;SDS011;56061;51.748;19.620;2024-03-23T02:33:20;27.60;;;12.20;;
69005;SDS011;56061;51.748;19.620;2024-03-23T02:35:47;27.70;;;12.40;;
69005;SDS011;56061;51.748;19.620;2024-03-23T02:38:13;28.00;;;12.90;;
69005;SDS011;56061;51.748;19.620;2024-03-23T02:40:40;29.10;;;12.90;;
69005;SDS011;56061;51.748;19.620;2024-03-23T02:43:06;25.70;;;12.50;;
69005;SDS011;56061;51.748;19.620;2024-03-23T02:45:32;29.40;;;14.50;;
69005;SDS011;56061;51.748;19.620;2024-03-23T02:47:59;26.00;;;12.40;;
69005;SDS011;56061;51.748;19.620;2024-03-23T02:50:25;28.90;;;12.90;;
69005;SDS011;56061;51.748;19.620;2024-03-23T02:52:52;29.10;;;14.00;;
69005;SDS011;56061;51.748;19.620;2024-03-23T02:55:18;32.30;;;14.20;;
69005;SDS011;56061;51.748;19.620;2024-03-23T02:57:44;29.30;;;13.90;;
69005;SDS011;56061;51.748;19.620;2024-03-23T03:00:11;29.80;;;13.80;;
69005;SDS011;56061;51.748;19.620;2024-03-23T03:02:38;26.30;;;11.90;;
69005;SDS011;56061;51.748;19.620;2024-03-23T03:05:05;26.20;;;12.70;;
69005;SDS011;56061;51.748;19.620;2024-03-23T03:07:32;26.10;;;12.90;;
69005;SDS011;56061;51.748;19.620;2024-03-23T03:09:58;29.80;;;12.50;;
69005;SDS011;56061;51.748;19.620;2024-03-23T03:12:25;28.90;;;13.20;;
69005;SDS011;56061;51.748;19.620;2024-03-23T03:14:51;40.60;;;16.60;;
69005;SDS011;56061;51.748;19.620;2024-03-23T03:17:18;38.70;;;18.00;;
69005;SDS011;56061;51.748;19.620;2024-03-23T03:19:45;54.30;;;22.60;;
69005;SDS011;56061;51.748;19.620;2024-03-23T03:22:11;34.60;;;16.50;;
69005;SDS011;56061;51.748;19.620;2024-03-23T03:24:38;36.10;;;16.30;;
69005;SDS011;56061;51.748;19.620;2024-03-23T03:27:04;37.90;;;18.10;;
69005;SDS011;56061;51.748;19.620;2024-03-23T03:29:32;55.10;;;24.80;;
69005;SDS011;56061;51.748;19.620;2024-03-23T03:32:04;50.10;;;23.40;;
69005;SDS011;56061;51.748;19.620;2024-03-23T03:34:30;55.60;;;25.90;;
69005;SDS011;56061;51.748;19.620;2024-03-23T03:36:58;50.50;;;24.50;;
69005;SDS011;56061;51.748;19.620;2024-03-23T03:39:24;59.10;;;28.50;;
69005;SDS011;56061;51.748;19.620;2024-03-23T03:41:51;54.50;;;25.00;;
69005;SDS011;56061;51.748;19.620;2024-03-23T03:44:17;36.20;;;17.70;;
69005;SDS011;56061;51.748;19.620;2024-03-23T03:46:43;35.00;;;16.90;;
69005;SDS011;56061;51.748;19.620;2024-03-23T03:49:10;34.70;;;17.10;;
69005;SDS011;56061;51.748;19.620;2024-03-23T03:51:36;32.60;;;15.90;;
69005;SDS011;56061;51.748;19.620;2024-03-23T03:54:03;32.30;;;14.40;;
69005;SDS011;56061;51.748;19.620;2024-03-23T03:56:29;30.20;;;13.90;;
69005;SDS011;56061;51.748;19.620;2024-03-23T03:58:55;29.30;;;13.60;;
69005;SDS011;56061;51.748;19.620;2024-03-23T04:01:22;29.00;;;13.10;;
69005;SDS011;56061;51.748;19.620;2024-03-23T04:03:48;28.50;;;13.30;;
69005;SDS011;56061;51.748;19.620;2024-03-23T04:06:21;30.60;;;14.30;;
69005;SDS011;56061;51.748;19.620;2024-03-23T04:08:47;27.70;;;12.50;;
69005;SDS011;56061;51.748;19.620;2024-03-23T04:11:13;30.50;;;14.10;;
69005;SDS011;56061;51.748;19.620;2024-03-23T04:13:40;34.10;;;15.10;;
69005;SDS011;56061;51.748;19.620;2024-03-23T04:16:07;29.30;;;14.70;;
69005;SDS011;56061;51.748;19.620;2024-03-23T04:18:35;31.90;;;13.70;;
69005;SDS011;56061;51.748;19.620;2024-03-23T04:21:01;31.00;;;12.90;;
69005;SDS011;56061;51.748;19.620;2024-03-23T04:23:29;29.50;;;14.20;;
69005;SDS011;56061;51.748;19.620;2024-03-23T04:25:55;28.60;;;13.30;;
69005;SDS011;56061;51.748;19.620;2024-03-23T04:28:22;30.00;;;14.00;;
69005;SDS011;56061;51.748;19.620;2024-03-23T04:30:48;28.10;;;14.10;;
69005;SDS011;56061;51.748;19.620;2024-03-23T04:33:15;30.40;;;14.60;;
69005;SDS011;56061;51.748;19.620;2024-03-23T04:35:41;31.80;;;13.80;;
69005;SDS011;56061;51.748;19.620;2024-03-23T04:38:07;28.60;;;13.00;;
69005;SDS011;56061;51.748;19.620;2024-03-23T04:40:33;30.40;;;12.80;;
69005;SDS011;56061;51.748;19.620;2024-03-23T04:43:00;26.10;;;12.80;;
69005;SDS011;56061;51.748;19.620;2024-03-23T04:45:27;26.00;;;11.60;;
69005;SDS011;56061;51.748;19.620;2024-03-23T04:47:53;26.30;;;12.10;;
69005;SDS011;56061;51.748;19.620;2024-03-23T04:50:20;29.10;;;12.50;;
69005;SDS011;56061;51.748;19.620;2024-03-23T04:52:49;27.10;;;11.70;;
69005;SDS011;56061;51.748;19.620;2024-03-23T04:55:15;25.70;;;11.90;;
69005;SDS011;56061;51.748;19.620;2024-03-23T04:57:41;24.00;;;10.70;;
69005;SDS011;56061;51.748;19.620;2024-03-23T05:02:34;30.50;;;12.10;;
69005;SDS011;56061;51.748;19.620;2024-03-23T05:05:00;25.90;;;10.90;;
69005;SDS011;56061;51.748;19.620;2024-03-23T05:07:27;23.00;;;10.70;;
69005;SDS011;56061;51.748;19.620;2024-03-23T05:09:53;23.30;;;10.10;;
69005;SDS011;56061;51.748;19.620;2024-03-23T05:12:19;21.70;;;10.30;;
69005;SDS011;56061;51.748;19.620;2024-03-23T05:14:46;23.40;;;11.10;;
69005;SDS011;56061;51.748;19.620;2024-03-23T05:17:13;25.60;;;9.90;;
69005;SDS011;56061;51.748;19.620;2024-03-23T05:19:39;23.70;;;9.80;;
69005;SDS011;56061;51.748;19.620;2024-03-23T05:22:06;27.20;;;11.20;;
69005;SDS011;56061;51.748;19.620;2024-03-23T05:24:33;26.00;;;11.00;;
69005;SDS011;56061;51.748;19.620;2024-03-23T05:26:59;26.90;;;10.90;;
69005;SDS011;56061;51.748;19.620;2024-03-23T05:29:25;31.60;;;14.50;;
69005;SDS011;56061;51.748;19.620;2024-03-23T05:31:52;28.70;;;14.60;;
69005;SDS011;56061;51.748;19.620;2024-03-23T05:34:18;26.30;;;12.40;;
69005;SDS011;56061;51.748;19.620;2024-03-23T05:36:45;24.00;;;11.30;;
69005;SDS011;56061;51.748;19.620;2024-03-23T05:39:11;24.70;;;11.40;;
69005;SDS011;56061;51.748;19.620;2024-03-23T05:41:37;25.50;;;10.40;;
69005;SDS011;56061;51.748;19.620;2024-03-23T05:44:04;22.50;;;10.50;;
69005;SDS011;56061;51.748;19.620;2024-03-23T05:46:30;23.40;;;10.40;;
69005;SDS011;56061;51.748;19.620;2024-03-23T05:49:01;25.00;;;11.50;;
69005;SDS011;56061;51.748;19.620;2024-03-23T05:51:27;22.10;;;10.60;;
69005;SDS011;56061;51.748;19.620;2024-03-23T05:53:54;22.70;;;9.50;;
69005;SDS011;56061;51.748;19.620;2024-03-23T05:56:20;23.30;;;10.20;;
69005;SDS011;56061;51.748;19.620;2024-03-23T05:58:47;28.00;;;11.90;;
69005;SDS011;56061;51.748;19.620;2024-03-23T06:01:14;25.30;;;11.10;;
69005;SDS011;56061;51.748;19.620;2024-03-23T06:03:41;22.10;;;9.60;;
69005;SDS011;56061;51.748;19.620;2024-03-23T06:08:58;21.10;;;8.90;;
69005;SDS011;56061;51.748;19.620;2024-03-23T06:11:24;22.00;;;9.80;;
69005;SDS011;56061;51.748;19.620;2024-03-23T06:13:52;22.80;;;10.00;;
69005;SDS011;56061;51.748;19.620;2024-03-23T06:16:19;24.20;;;11.10;;
69005;SDS011;56061;51.748;19.620;2024-03-23T06:18:50;22.20;;;10.00;;
69005;SDS011;56061;51.748;19.620;2024-03-23T06:21:16;21.70;;;9.40;;
69005;SDS011;56061;51.748;19.620;2024-03-23T06:23:43;24.70;;;9.40;;
69005;SDS011;56061;51.748;19.620;2024-03-23T06:26:18;22.70;;;9.20;;
69005;SDS011;56061;51.748;19.620;2024-03-23T06:28:53;22.00;;;8.80;;
69005;SDS011;56061;51.748;19.620;2024-03-23T06:31:20;19.10;;;8.90;;
69005;SDS011;56061;51.748;19.620;2024-03-23T06:33:46;22.10;;;9.30;;
69005;SDS011;56061;51.748;19.620;2024-03-23T06:36:12;21.00;;;9.70;;
69005;SDS011;56061;51.748;19.620;2024-03-23T06:38:41;20.20;;;9.10;;
69005;SDS011;56061;51.748;19.620;2024-03-23T06:41:17;20.30;;;9.70;;
69005;SDS011;56061;51.748;19.620;2024-03-23T06:43:44;20.30;;;9.20;;
69005;SDS011;56061;51.748;19.620;2024-03-23T06:46:13;24.30;;;11.30;;
69005;SDS011;56061;51.748;19.620;2024-03-23T06:48:39;20.80;;;9.60;;
69005;SDS011;56061;51.748;19.620;2024-03-23T06:53:39;22.40;;;9.20;;
69005;SDS011;56061;51.748;19.620;2024-03-23T06:56:06;19.10;;;8.70;;
69005;SDS011;56061;51.748;19.620;2024-03-23T06:58:32;25.60;;;9.90;;
69005;SDS011;56061;51.748;19.620;2024-03-23T07:00:59;20.50;;;9.60;;
69005;SDS011;56061;51.748;19.620;2024-03-23T07:03:35;23.50;;;9.40;;
69005;SDS011;56061;51.748;19.620;2024-03-23T07:06:04;22.50;;;9.90;;
69005;SDS011;56061;51.748;19.620;2024-03-23T07:08:31;21.00;;;9.70;;
69005;SDS011;56061;51.748;19.620;2024-03-23T07:10:57;22.10;;;9.90;;
69005;SDS011;56061;51.748;19.620;2024-03-23T07:13:24;32.70;;;16.80;;
69005;SDS011;56061;51.748;19.620;2024-03-23T07:15:54;27.70;;;11.30;;
69005;SDS011;56061;51.748;19.620;2024-03-23T07:18:24;21.30;;;11.90;;
69005;SDS011;56061;51.748;19.620;2024-03-23T07:20:57;21.10;;;11.70;;
69005;SDS011;56061;51.748;19.620;2024-03-23T07:23:24;20.50;;;11.00;;
69005;SDS011;56061;51.748;19.620;2024-03-23T07:26:04;18.40;;;9.50;;
69005;SDS011;56061;51.748;19.620;2024-03-23T07:28:34;19.50;;;9.00;;
69005;SDS011;56061;51.748;19.620;2024-03-23T07:31:06;19.20;;;8.80;;
69005;SDS011;56061;51.748;19.620;2024-03-23T07:33:36;17.40;;;8.30;;
69005;SDS011;56061;51.748;19.620;2024-03-23T07:36:08;20.50;;;9.70;;
69005;SDS011;56061;51.748;19.620;2024-03-23T07:38:33;20.00;;;9.50;;
69005;SDS011;56061;51.748;19.620;2024-03-23T07:43:29;17.50;;;8.20;;
69005;SDS011;56061;51.748;19.620;2024-03-23T07:45:56;21.00;;;9.50;;
69005;SDS011;56061;51.748;19.620;2024-03-23T07:48:22;19.10;;;9.00;;
69005;SDS011;56061;51.748;19.620;2024-03-23T07:53:36;15.60;;;7.90;;
69005;SDS011;56061;51.748;19.620;2024-03-23T07:56:06;14.70;;;7.70;;
69005;SDS011;56061;51.748;19.620;2024-03-23T07:58:34;15.20;;;8.30;;
69005;SDS011;56061;51.748;19.620;2024-03-23T08:01:05;14.50;;;6.90;;
69005;SDS011;56061;51.748;19.620;2024-03-23T08:03:39;15.30;;;7.20;;
69005;SDS011;56061;51.748;19.620;2024-03-23T08:08:35;14.80;;;7.40;;
69005;SDS011;56061;51.748;19.620;2024-03-23T08:11:01;15.90;;;8.50;;
69005;SDS011;56061;51.748;19.620;2024-03-23T08:13:30;15.70;;;7.10;;
69005;SDS011;56061;51.748;19.620;2024-03-23T08:16:01;15.60;;;7.60;;
69005;SDS011;56061;51.748;19.620;2024-03-23T08:18:29;16.00;;;8.30;;
69005;SDS011;56061;51.748;19.620;2024-03-23T08:21:03;17.30;;;8.30;;
69005;SDS011;56061;51.748;19.620;2024-03-23T08:23:32;15.80;;;8.30;;
69005;SDS011;56061;51.748;19.620;2024-03-23T08:28:35;14.50;;;8.40;;
69005;SDS011;56061;51.748;19.620;2024-03-23T08:31:06;15.20;;;7.80;;
69005;SDS011;56061;51.748;19.620;2024-03-23T08:33:34;14.20;;;7.40;;
69005;SDS011;56061;51.748;19.620;2024-03-23T08:36:06;13.50;;;7.00;;
69005;SDS011;56061;51.748;19.620;2024-03-23T08:38:35;14.20;;;7.50;;
69005;SDS011;56061;51.748;19.620;2024-03-23T08:41:03;14.00;;;6.40;;
69005;SDS011;56061;51.748;19.620;2024-03-23T08:43:36;36.00;;;12.00;;
69005;SDS011;56061;51.748;19.620;2024-03-23T08:48:35;14.00;;;6.80;;
69005;SDS011;56061;51.748;19.620;2024-03-23T08:51:07;13.10;;;6.10;;
69005;SDS011;56061;51.748;19.620;2024-03-23T08:53:35;12.70;;;5.70;;
69005;SDS011;56061;51.748;19.620;2024-03-23T08:56:02;11.70;;;5.80;;
69005;SDS011;56061;51.748;19.620;2024-03-23T08:58:31;12.30;;;5.80;;
69005;SDS011;56061;51.748;19.620;2024-03-23T09:01:07;13.20;;;6.60;;
69005;SDS011;56061;51.748;19.620;2024-03-23T09:03:35;13.40;;;6.10;;
69005;SDS011;56061;51.748;19.620;2024-03-23T09:08:35;15.50;;;7.30;;
69005;SDS011;56061;51.748;19.620;2024-03-23T09:11:08;12.80;;;6.80;;
69005;SDS011;56061;51.748;19.620;2024-03-23T09:13:37;12.30;;;6.30;;
69005;SDS011;56061;51.748;19.620;2024-03-23T09:16:05;13.80;;;7.80;;
69005;SDS011;56061;51.748;19.620;2024-03-23T09:18:33;15.50;;;7.50;;
69005;SDS011;56061;51.748;19.620;2024-03-23T09:23:35;12.80;;;6.20;;
69005;SDS011;56061;51.748;19.620;2024-03-23T09:26:04;12.90;;;5.70;;
69005;SDS011;56061;51.748;19.620;2024-03-23T09:28:33;16.90;;;8.70;;
69005;SDS011;56061;51.748;19.620;2024-03-23T09:31:03;13.30;;;6.20;;
69005;SDS011;56061;51.748;19.620;2024-03-23T09:33:34;12.50;;;6.80;;
69005;SDS011;56061;51.748;19.620;2024-03-23T09:36:04;11.60;;;5.90;;
69005;SDS011;56061;51.748;19.620;2024-03-23T09:38:32;11.80;;;6.60;;
69005;SDS011;56061;51.748;19.620;2024-03-23T09:40:59;11.90;;;6.20;;
69005;SDS011;56061;51.748;19.620;2024-03-23T09:43:29;13.80;;;6.50;;
69005;SDS011;56061;51.748;19.620;2024-03-23T09:45:56;11.90;;;6.10;;
69005;SDS011;56061;51.748;19.620;2024-03-23T09:48:22;12.60;;;6.30;;
69005;SDS011;56061;51.748;19.620;2024-03-23T09:50:48;12.00;;;6.40;;
69005;SDS011;56061;51.748;19.620;2024-03-23T09:53:15;13.00;;;6.40;;
69005;SDS011;56061;51.748;19.620;2024-03-23T09:55:43;12.70;;;6.10;;
69005;SDS011;56061;51.748;19.620;2024-03-23T09:58:16;12.40;;;6.20;;
69005;SDS011;56061;51.748;19.620;2024-03-23T10:00:44;13.80;;;6.80;;
69005;SDS011;56061;51.748;19.620;2024-03-23T10:03:11;11.80;;;6.30;;
69005;SDS011;56061;51.748;19.620;2024-03-23T10:05:38;11.70;;;5.90;;
69005;SDS011;56061;51.748;19.620;2024-03-23T10:10:44;12.30;;;6.30;;
69005;SDS011;56061;51.748;19.620;2024-03-23T10:13:23;13.60;;;6.40;;
69005;SDS011;56061;51.748;19.620;2024-03-23T10:15:57;13.70;;;6.40;;
69005;SDS011;56061;51.748;19.620;2024-03-23T10:18:25;12.30;;;6.50;;
69005;SDS011;56061;51.748;19.620;2024-03-23T10:23:36;10.20;;;5.80;;
69005;SDS011;56061;51.748;19.620;2024-03-23T10:28:35;10.70;;;5.30;;
69005;SDS011;56061;51.748;19.620;2024-03-23T10:33:35;10.50;;;5.40;;
69005;SDS011;56061;51.748;19.620;2024-03-23T10:36:02;11.20;;;5.80;;
69005;SDS011;56061;51.748;19.620;2024-03-23T10:38:29;10.90;;;6.10;;
69005;SDS011;56061;51.748;19.620;2024-03-23T10:40:57;11.90;;;5.20;;
69005;SDS011;56061;51.748;19.620;2024-03-23T10:43:25;10.30;;;5.00;;
69005;SDS011;56061;51.748;19.620;2024-03-23T10:45:51;11.50;;;5.30;;
69005;SDS011;56061;51.748;19.620;2024-03-23T10:48:18;9.70;;;4.90;;
69005;SDS011;56061;51.748;19.620;2024-03-23T10:50:44;9.10;;;5.10;;
69005;SDS011;56061;51.748;19.620;2024-03-23T10:53:12;9.00;;;3.90;;
69005;SDS011;56061;51.748;19.620;2024-03-23T10:55:41;10.80;;;4.80;;
69005;SDS011;56061;51.748;19.620;2024-03-23T10:58:07;9.90;;;4.60;;
69005;SDS011;56061;51.748;19.620;2024-03-23T11:00:34;8.50;;;4.30;;
69005;SDS011;56061;51.748;19.620;2024-03-23T11:05:35;9.00;;;4.60;;
69005;SDS011;56061;51.748;19.620;2024-03-23T11:08:02;9.20;;;5.10;;
69005;SDS011;56061;51.748;19.620;2024-03-23T11:10:30;11.00;;;5.20;;
69005;SDS011;56061;51.748;19.620;2024-03-23T11:12:58;9.40;;;4.60;;
69005;SDS011;56061;51.748;19.620;2024-03-23T11:15:36;17.90;;;7.60;;
69005;SDS011;56061;51.748;19.620;2024-03-23T11:18:07;10.00;;;5.10;;
69005;SDS011;56061;51.748;19.620;2024-03-23T11:20:35;8.10;;;4.10;;
69005;SDS011;56061;51.748;19.620;2024-03-23T11:23:02;10.40;;;5.00;;
69005;SDS011;56061;51.748;19.620;2024-03-23T11:25:29;10.20;;;4.60;;
69005;SDS011;56061;51.748;19.620;2024-03-23T11:27:57;9.20;;;4.90;;
69005;SDS011;56061;51.748;19.620;2024-03-23T11:30:35;11.10;;;5.40;;
69005;SDS011;56061;51.748;19.620;2024-03-23T11:33:04;10.30;;;6.30;;
69005;SDS011;56061;51.748;19.620;2024-03-23T11:35:38;20.20;;;11.50;;
69005;SDS011;56061;51.748;19.620;2024-03-23T11:40:38;10.90;;;6.00;;
69005;SDS011;56061;51.748;19.620;2024-03-23T11:45:38;12.60;;;6.60;;
69005;SDS011;56061;51.748;19.620;2024-03-23T11:50:40;11.70;;;7.50;;
69005;SDS011;56061;51.748;19.620;2024-03-23T11:53:11;12.30;;;6.50;;
69005;SDS011;56061;51.748;19.620;2024-03-23T11:55:40;12.20;;;6.10;;
69005;SDS011;56061;51.748;19.620;2024-03-23T11:58:17;9.90;;;5.80;;
69005;SDS011;56061;51.748;19.620;2024-03-23T12:00:52;9.90;;;5.80;;
69005;SDS011;56061;51.748;19.620;2024-03-23T12:03:22;10.70;;;5.60;;
69005;SDS011;56061;51.748;19.620;2024-03-23T12:05:53;9.50;;;5.50;;
69005;SDS011;56061;51.748;19.620;2024-03-23T12:08:22;10.70;;;5.70;;
69005;SDS011;56061;51.748;19.620;2024-03-23T12:10:51;9.90;;;5.20;;
69005;SDS011;56061;51.748;19.620;2024-03-23T12:13:21;10.30;;;5.70;;
69005;SDS011;56061;51.748;19.620;2024-03-23T12:15:50;9.70;;;5.20;;
69005;SDS011;56061;51.748;19.620;2024-03-23T12:18:17;10.40;;;5.70;;
69005;SDS011;56061;51.748;19.620;2024-03-23T12:20:49;12.10;;;6.60;;
69005;SDS011;56061;51.748;19.620;2024-03-23T12:23:16;11.40;;;5.90;;
69005;SDS011;56061;51.748;19.620;2024-03-23T12:25:42;11.90;;;6.00;;
69005;SDS011;56061;51.748;19.620;2024-03-23T12:28:09;10.80;;;6.00;;
69005;SDS011;56061;51.748;19.620;2024-03-23T12:30:38;11.10;;;6.10;;
69005;SDS011;56061;51.748;19.620;2024-03-23T12:33:06;11.40;;;5.80;;
69005;SDS011;56061;51.748;19.620;2024-03-23T12:35:33;11.40;;;5.70;;
69005;SDS011;56061;51.748;19.620;2024-03-23T12:38:00;10.00;;;5.60;;
69005;SDS011;56061;51.748;19.620;2024-03-23T12:40:28;9.40;;;5.40;;
69005;SDS011;56061;51.748;19.620;2024-03-23T12:42:55;11.40;;;5.30;;
69005;SDS011;56061;51.748;19.620;2024-03-23T12:45:22;11.30;;;5.10;;
69005;SDS011;56061;51.748;19.620;2024-03-23T12:47:49;11.40;;;5.40;;
69005;SDS011;56061;51.748;19.620;2024-03-23T12:50:15;11.20;;;5.20;;
69005;SDS011;56061;51.748;19.620;2024-03-23T12:52:43;10.40;;;5.50;;
69005;SDS011;56061;51.748;19.620;2024-03-23T12:55:10;10.30;;;5.40;;
69005;SDS011;56061;51.748;19.620;2024-03-23T12:57:40;10.40;;;4.80;;
69005;SDS011;56061;51.748;19.620;2024-03-23T13:00:08;19.00;;;8.50;;
69005;SDS011;56061;51.748;19.620;2024-03-23T13:02:35;14.30;;;6.70;;
69005;SDS011;56061;51.748;19.620;2024-03-23T13:05:02;25.50;;;11.60;;
69005;SDS011;56061;51.748;19.620;2024-03-23T13:07:28;54.20;;;23.90;;
69005;SDS011;56061;51.748;19.620;2024-03-23T13:09:55;68.30;;;28.00;;
69005;SDS011;56061;51.748;19.620;2024-03-23T13:12:23;61.20;;;27.40;;
69005;SDS011;56061;51.748;19.620;2024-03-23T13:14:49;40.80;;;19.40;;
69005;SDS011;56061;51.748;19.620;2024-03-23T13:17:16;28.70;;;14.50;;
69005;SDS011;56061;51.748;19.620;2024-03-23T13:19:42;17.40;;;8.30;;
69005;SDS011;56061;51.748;19.620;2024-03-23T13:24:38;14.10;;;8.10;;
69005;SDS011;56061;51.748;19.620;2024-03-23T13:27:05;21.00;;;12.70;;
69005;SDS011;56061;51.748;19.620;2024-03-23T13:29:34;20.70;;;12.90;;
69005;SDS011;56061;51.748;19.620;2024-03-23T13:32:01;19.30;;;11.60;;
69005;SDS011;56061;51.748;19.620;2024-03-23T13:34:28;18.00;;;8.90;;
69005;SDS011;56061;51.748;19.620;2024-03-23T13:36:55;14.60;;;7.80;;
69005;SDS011;56061;51.748;19.620;2024-03-23T13:39:25;14.50;;;8.10;;
69005;SDS011;56061;51.748;19.620;2024-03-23T13:41:54;18.20;;;10.80;;
69005;SDS011;56061;51.748;19.620;2024-03-23T13:44:23;18.70;;;10.50;;
69005;SDS011;56061;51.748;19.620;2024-03-23T13:46:50;21.70;;;13.30;;
69005;SDS011;56061;51.748;19.620;2024-03-23T13:49:31;26.30;;;14.10;;
69005;SDS011;56061;51.748;19.620;2024-03-23T13:51:58;19.10;;;9.90;;
69005;SDS011;56061;51.748;19.620;2024-03-23T13:54:26;18.40;;;8.90;;
69005;SDS011;56061;51.748;19.620;2024-03-23T13:56:54;16.70;;;7.70;;
69005;SDS011;56061;51.748;19.620;2024-03-23T13:59:22;14.10;;;7.00;;
69005;SDS011;56061;51.748;19.620;2024-03-23T14:01:49;13.60;;;7.40;;
69005;SDS011;56061;51.748;19.620;2024-03-23T14:04:21;14.70;;;8.60;;
69005;SDS011;56061;51.748;19.620;2024-03-23T14:06:49;17.10;;;9.50;;
69005;SDS011;56061;51.748;19.620;2024-03-23T14:09:15;15.70;;;8.40;;
69005;SDS011;56061;51.748;19.620;2024-03-23T14:11:47;16.30;;;7.20;;
69005;SDS011;56061;51.748;19.620;2024-03-23T14:14:13;12.80;;;6.80;;
69005;SDS011;56061;51.748;19.620;2024-03-23T14:16:43;17.60;;;9.10;;
69005;SDS011;56061;51.748;19.620;2024-03-23T14:19:10;18.20;;;9.70;;
69005;SDS011;56061;51.748;19.620;2024-03-23T14:21:36;16.20;;;10.30;;
69005;SDS011;56061;51.748;19.620;2024-03-23T14:24:03;12.00;;;6.60;;
69005;SDS011;56061;51.748;19.620;2024-03-23T14:26:30;12.60;;;6.20;;
69005;SDS011;56061;51.748;19.620;2024-03-23T14:28:56;17.00;;;8.60;;
69005;SDS011;56061;51.748;19.620;2024-03-23T14:31:23;14.80;;;8.00;;
69005;SDS011;56061;51.748;19.620;2024-03-23T14:33:51;12.30;;;7.00;;
69005;SDS011;56061;51.748;19.620;2024-03-23T14:36:17;13.00;;;6.90;;
69005;SDS011;56061;51.748;19.620;2024-03-23T14:38:48;12.80;;;6.90;;
69005;SDS011;56061;51.748;19.620;2024-03-23T14:41:15;13.80;;;7.60;;
69005;SDS011;56061;51.748;19.620;2024-03-23T14:43:44;20.20;;;7.30;;
69005;SDS011;56061;51.748;19.620;2024-03-23T14:46:13;17.10;;;8.10;;
69005;SDS011;56061;51.748;19.620;2024-03-23T14:48:43;15.20;;;7.00;;
69005;SDS011;56061;51.748;19.620;2024-03-23T14:51:10;16.20;;;7.60;;
69005;SDS011;56061;51.748;19.620;2024-03-23T14:53:38;13.90;;;7.10;;
69005;SDS011;56061;51.748;19.620;2024-03-23T14:56:09;12.20;;;7.00;;
69005;SDS011;56061;51.748;19.620;2024-03-23T14:58:36;11.80;;;6.30;;
69005;SDS011;56061;51.748;19.620;2024-03-23T15:01:03;12.20;;;6.30;;
69005;SDS011;56061;51.748;19.620;2024-03-23T15:03:31;14.00;;;7.20;;
69005;SDS011;56061;51.748;19.620;2024-03-23T15:05:58;18.70;;;9.30;;
69005;SDS011;56061;51.748;19.620;2024-03-23T15:08:28;17.00;;;7.60;;
69005;SDS011;56061;51.748;19.620;2024-03-23T15:10:58;16.10;;;7.90;;
69005;SDS011;56061;51.748;19.620;2024-03-23T15:13:25;14.80;;;7.20;;
69005;SDS011;56061;51.748;19.620;2024-03-23T15:15:52;22.00;;;13.10;;
69005;SDS011;56061;51.748;19.620;2024-03-23T15:18:18;19.80;;;11.30;;
69005;SDS011;56061;51.748;19.620;2024-03-23T15:20:55;18.70;;;10.60;;
69005;SDS011;56061;51.748;19.620;2024-03-23T15:23:23;17.70;;;9.50;;
69005;SDS011;56061;51.748;19.620;2024-03-23T15:25:57;17.10;;;9.70;;
69005;SDS011;56061;51.748;19.620;2024-03-23T15:28:24;24.00;;;15.10;;
69005;SDS011;56061;51.748;19.620;2024-03-23T15:31:08;32.20;;;16.60;;
69005;SDS011;56061;51.748;19.620;2024-03-23T15:33:35;31.60;;;16.30;;
69005;SDS011;56061;51.748;19.620;2024-03-23T15:36:03;24.30;;;12.60;;
69005;SDS011;56061;51.748;19.620;2024-03-23T15:38:33;30.80;;;13.60;;
69005;SDS011;56061;51.748;19.620;2024-03-23T15:40:59;47.10;;;16.70;;
69005;SDS011;56061;51.748;19.620;2024-03-23T15:43:26;91.20;;;24.70;;
69005;SDS011;56061;51.748;19.620;2024-03-23T15:45:57;49.70;;;17.20;;
69005;SDS011;56061;51.748;19.620;2024-03-23T15:48:28;42.70;;;15.50;;
69005;SDS011;56061;51.748;19.620;2024-03-23T15:50:57;42.90;;;16.00;;
69005;SDS011;56061;51.748;19.620;2024-03-23T15:53:26;30.90;;;13.50;;
69005;SDS011;56061;51.748;19.620;2024-03-23T15:56:03;25.10;;;11.10;;
69005;SDS011;56061;51.748;19.620;2024-03-23T15:58:31;24.30;;;11.80;;
69005;SDS011;56061;51.748;19.620;2024-03-23T16:01:06;25.20;;;11.90;;
69005;SDS011;56061;51.748;19.620;2024-03-23T16:03:37;21.20;;;9.80;;